createdAt,value
2018-03-20T00:00:01.324Z,991.36
2018-03-20T00:01:10.860Z,991.41
2018-03-20T00:02:20.657Z,991.37
2018-03-20T00:03:30.442Z,991.41
2018-03-20T00:04:40.505Z,991.4
2018-03-20T00:05:50.585Z,991.35
2018-03-20T00:07:00.664Z,991.35
2018-03-20T00:08:10.210Z,991.33
2018-03-20T00:09:20.292Z,991.35
2018-03-20T00:10:30.349Z,991.34
2018-03-20T00:11:40.142Z,991.37
2018-03-20T00:12:50.209Z,991.36
2018-03-20T00:13:59.744Z,991.39
2018-03-20T00:15:09.547Z,991.36
2018-03-20T00:16:19.339Z,991.35
2018-03-20T00:17:29.383Z,991.32
2018-03-20T00:18:39.441Z,991.3
2018-03-20T00:19:48.704Z,991.25
2018-03-20T00:20:58.807Z,991.31
2018-03-20T00:22:08.605Z,991.32
2018-03-20T00:23:18.381Z,991.29
2018-03-20T00:24:28.289Z,991.3
2018-03-20T00:25:38.110Z,991.28
2018-03-20T00:26:47.898Z,991.3
2018-03-20T00:27:57.434Z,991.26
2018-03-20T00:29:07.510Z,991.25
2018-03-20T00:30:17.113Z,991.24
2018-03-20T00:31:27.190Z,991.21
2018-03-20T00:32:37.024Z,991.2
2018-03-20T00:33:46.581Z,991.24
2018-03-20T00:34:56.381Z,991.23
2018-03-20T00:36:05.917Z,991.24
2018-03-20T00:37:15.696Z,991.2
2018-03-20T00:38:25.228Z,991.2
2018-03-20T00:39:35.301Z,991.26
2018-03-20T00:40:44.846Z,991.21
2018-03-20T00:41:54.916Z,991.2
2018-03-20T00:43:04.442Z,991.21
2018-03-20T00:44:14.501Z,991.16
2018-03-20T00:45:24.037Z,991.12
2018-03-20T00:46:33.837Z,991.18
2018-03-20T00:47:43.170Z,991.11
2018-03-20T00:48:52.962Z,991.13
2018-03-20T00:50:03.047Z,991.11
2018-03-20T00:51:13.109Z,991.08
2018-03-20T00:52:22.912Z,991.04
2018-03-20T00:53:33.028Z,991.08
2018-03-20T00:54:42.818Z,991.03
2018-03-20T00:55:52.609Z,991.03
2018-03-20T00:57:02.669Z,991.01
2018-03-20T00:58:11.936Z,990.98
2018-03-20T00:59:21.479Z,990.99
2018-03-20T01:00:31.273Z,990.95
2018-03-20T01:01:41.075Z,990.93
2018-03-20T01:02:50.612Z,990.88
2018-03-20T01:04:00.135Z,990.89
2018-03-20T01:05:10.275Z,990.89
2018-03-20T01:06:20.071Z,990.91
2018-03-20T01:07:30.139Z,990.84
2018-03-20T01:08:39.993Z,990.84
2018-03-20T01:09:49.807Z,990.81
2018-03-20T01:10:59.655Z,990.85
2018-03-20T01:12:09.168Z,990.75
2018-03-20T01:13:18.972Z,990.79
2018-03-20T01:14:29.021Z,990.73
2018-03-20T01:15:39.128Z,990.76
2018-03-20T01:16:49.252Z,990.75
2018-03-20T01:17:58.789Z,990.71
2018-03-20T01:19:08.578Z,990.74
2018-03-20T01:20:18.372Z,990.75
2018-03-20T01:21:28.165Z,990.77
2018-03-20T01:22:38.252Z,990.73
2018-03-20T01:23:48.038Z,990.73
2018-03-20T01:24:58.096Z,990.75
2018-03-20T01:26:08.112Z,990.71
2018-03-20T01:27:18.173Z,990.74
2018-03-20T01:28:27.963Z,990.72
2018-03-20T01:29:38.029Z,990.71
2018-03-20T01:30:48.096Z,990.7
2018-03-20T01:31:57.890Z,990.67
2018-03-20T01:33:07.937Z,990.7
2018-03-20T01:34:18.047Z,990.67
2018-03-20T01:35:28.097Z,990.62
2018-03-20T01:36:38.164Z,990.66
2018-03-20T01:37:48.226Z,990.65
2018-03-20T01:38:58.277Z,990.62
2018-03-20T01:40:08.118Z,990.6
2018-03-20T01:41:18.166Z,990.59
2018-03-20T01:42:28.238Z,990.55
2018-03-20T01:43:38.028Z,990.55
2018-03-20T01:44:47.820Z,990.59
2018-03-20T01:45:58.111Z,990.49
2018-03-20T01:47:08.195Z,990.52
2018-03-20T01:48:18.243Z,990.53
2018-03-20T01:49:28.317Z,990.54
2018-03-20T01:50:38.385Z,990.52
2018-03-20T01:51:48.498Z,990.52
2018-03-20T01:52:58.286Z,990.54
2018-03-20T01:54:08.099Z,990.49
2018-03-20T01:55:17.900Z,990.53
2018-03-20T01:56:27.708Z,990.53
2018-03-20T01:57:37.248Z,990.55
2018-03-20T01:58:47.313Z,990.52
2018-03-20T01:59:57.376Z,990.54
2018-03-20T02:01:07.149Z,990.56
2018-03-20T02:02:16.933Z,990.57
2018-03-20T02:03:27.027Z,990.56
2018-03-20T02:04:37.081Z,990.56
2018-03-20T02:05:46.891Z,990.57
2018-03-20T02:06:56.955Z,990.55
2018-03-20T02:08:07.015Z,990.5
2018-03-20T02:09:17.056Z,990.48
2018-03-20T02:10:27.101Z,990.51
2018-03-20T02:11:37.162Z,990.5
2018-03-20T02:12:46.681Z,990.52
2018-03-20T02:13:56.213Z,990.46
2018-03-20T02:15:06.333Z,990.48
2018-03-20T02:16:16.377Z,990.46
2018-03-20T02:17:26.193Z,990.46
2018-03-20T02:18:36.010Z,990.39
2018-03-20T02:19:46.083Z,990.44
2018-03-20T02:20:56.134Z,990.4
2018-03-20T02:22:05.927Z,990.34
2018-03-20T02:23:15.978Z,990.35
2018-03-20T02:24:25.788Z,990.31
2018-03-20T02:25:35.828Z,990.32
2018-03-20T02:26:45.680Z,990.32
2018-03-20T02:27:55.746Z,990.33
2018-03-20T02:29:05.897Z,990.33
2018-03-20T02:30:15.950Z,990.31
2018-03-20T02:31:26.022Z,990.37
2018-03-20T02:32:35.883Z,990.32
2018-03-20T02:33:45.694Z,990.34
2018-03-20T02:34:55.804Z,990.27
2018-03-20T02:36:05.878Z,990.31
2018-03-20T02:37:15.420Z,990.32
2018-03-20T02:38:25.543Z,990.3
2018-03-20T02:39:35.589Z,990.31
2018-03-20T02:40:45.384Z,990.36
2018-03-20T02:41:55.447Z,990.38
2018-03-20T02:43:05.502Z,990.4
2018-03-20T02:44:15.550Z,990.38
2018-03-20T02:45:25.620Z,990.35
2018-03-20T02:46:35.428Z,990.37
2018-03-20T02:47:45.225Z,990.36
2018-03-20T02:48:55.287Z,990.38
2018-03-20T02:50:05.364Z,990.37
2018-03-20T02:51:15.438Z,990.37
2018-03-20T02:52:25.533Z,990.32
2018-03-20T02:53:35.608Z,990.32
2018-03-20T02:54:45.656Z,990.32
2018-03-20T02:55:55.237Z,990.32
2018-03-20T02:57:05.323Z,990.35
2018-03-20T02:58:15.382Z,990.35
2018-03-20T02:59:25.459Z,990.36
2018-03-20T03:00:35.525Z,990.28
2018-03-20T03:01:45.448Z,990.34
2018-03-20T03:02:55.503Z,990.33
2018-03-20T03:04:05.349Z,990.33
2018-03-20T03:05:15.416Z,990.31
2018-03-20T03:06:24.959Z,990.35
2018-03-20T03:07:34.821Z,990.28
2018-03-20T03:39:23.306Z,990.43
2018-03-20T03:40:32.844Z,990.44
2018-03-20T03:41:42.623Z,990.43
2018-03-20T03:42:52.136Z,990.49
2018-03-20T03:44:01.652Z,990.45
2018-03-20T03:45:11.282Z,990.46
2018-03-20T03:46:21.048Z,990.47
2018-03-20T03:47:31.095Z,990.48
2018-03-20T03:48:41.136Z,990.47
2018-03-20T03:49:51.184Z,990.47
2018-03-20T03:51:01.246Z,990.41
2018-03-20T03:52:11.305Z,990.46
2018-03-20T03:53:21.108Z,990.51
2018-03-20T03:54:30.921Z,990.44
2018-03-20T03:55:40.983Z,990.48
2018-03-20T03:56:51.098Z,990.44
2018-03-20T03:58:01.156Z,990.45
2018-03-20T03:59:10.969Z,990.42
2018-03-20T04:00:21.028Z,990.5
2018-03-20T04:01:31.088Z,990.51
2018-03-20T04:02:40.935Z,990.48
2018-03-20T04:03:51.006Z,990.49
2018-03-20T04:05:00.798Z,990.51
2018-03-20T04:06:10.598Z,990.49
2018-03-20T04:07:20.655Z,990.46
2018-03-20T04:08:30.467Z,990.45
2018-03-20T04:09:40.528Z,990.48
2018-03-20T04:10:50.591Z,990.54
2018-03-20T04:12:00.637Z,990.56
2018-03-20T04:13:10.457Z,990.51
2018-03-20T04:14:20.521Z,990.52
2018-03-20T04:15:30.574Z,990.51
2018-03-20T04:16:40.640Z,990.62
2018-03-20T04:17:50.701Z,990.58
2018-03-20T04:19:00.764Z,990.55
2018-03-20T04:20:10.820Z,990.56
2018-03-20T04:21:20.350Z,990.6
2018-03-20T04:22:30.405Z,990.59
2018-03-20T04:23:40.205Z,990.55
2018-03-20T04:24:50.256Z,990.58
2018-03-20T04:26:00.330Z,990.61
2018-03-20T04:27:10.396Z,990.61
2018-03-20T04:28:20.448Z,990.6
2018-03-20T04:29:30.532Z,990.57
2018-03-20T04:30:40.605Z,990.55
2018-03-20T04:31:50.412Z,990.57
2018-03-20T04:33:00.211Z,990.66
2018-03-20T04:34:10.076Z,990.63
2018-03-20T04:35:20.158Z,990.63
2018-03-20T04:36:30.266Z,990.56
2018-03-20T04:37:40.328Z,990.65
2018-03-20T04:38:50.145Z,990.61
2018-03-20T04:40:00.225Z,990.65
2018-03-20T04:41:10.294Z,990.68
2018-03-20T04:42:20.346Z,990.7
2018-03-20T04:43:30.446Z,990.69
2018-03-20T04:44:40.508Z,990.72
2018-03-20T04:45:50.596Z,990.67
2018-03-20T04:47:00.652Z,990.73
2018-03-20T04:48:10.751Z,990.66
2018-03-20T04:49:20.553Z,990.7
2018-03-20T04:50:30.613Z,990.68
2018-03-20T04:51:40.412Z,990.62
2018-03-20T04:52:50.477Z,990.64
2018-03-20T04:54:00.532Z,990.69
2018-03-20T04:55:10.640Z,990.7
2018-03-20T04:56:20.718Z,990.71
2018-03-20T04:57:30.761Z,990.68
2018-03-20T04:58:40.805Z,990.65
2018-03-20T04:59:50.885Z,990.73
2018-03-20T05:01:01.018Z,990.69
2018-03-20T05:02:10.819Z,990.71
2018-03-20T05:03:20.350Z,990.69
2018-03-20T05:04:30.451Z,990.7
2018-03-20T05:05:40.515Z,990.77
2018-03-20T05:06:50.566Z,990.73
2018-03-20T05:08:00.363Z,990.7
2018-03-20T05:09:10.449Z,990.67
2018-03-20T05:10:20.503Z,990.66
2018-03-20T05:11:30.567Z,990.65
2018-03-20T05:12:40.423Z,990.72
2018-03-20T05:13:50.511Z,990.62
2018-03-20T05:15:00.564Z,990.68
2018-03-20T05:16:10.618Z,990.69
2018-03-20T05:17:20.673Z,990.73
2018-03-20T05:18:30.791Z,990.76
2018-03-20T05:19:40.853Z,990.74
2018-03-20T05:20:50.897Z,990.78
2018-03-20T05:22:00.943Z,990.71
2018-03-20T05:23:11.019Z,990.76
2018-03-20T05:24:21.093Z,990.77
2018-03-20T05:25:31.180Z,990.86
2018-03-20T05:26:41.230Z,990.86
2018-03-20T05:27:51.043Z,990.83
2018-03-20T05:29:00.837Z,990.83
2018-03-20T05:30:10.951Z,990.92
2018-03-20T05:31:21.013Z,990.83
2018-03-20T05:32:31.077Z,990.88
2018-03-20T05:33:40.879Z,990.9
2018-03-20T05:34:50.688Z,990.9
2018-03-20T05:36:00.751Z,990.84
2018-03-20T05:37:10.805Z,990.87
2018-03-20T05:38:20.606Z,990.93
2018-03-20T05:39:30.794Z,990.92
2018-03-20T05:40:40.864Z,990.92
2018-03-20T05:41:50.735Z,990.9
2018-03-20T05:43:00.686Z,990.87
2018-03-20T05:44:10.745Z,990.89
2018-03-20T05:45:20.803Z,990.95
2018-03-20T05:46:30.856Z,990.97
2018-03-20T05:47:40.713Z,990.98
2018-03-20T05:48:50.762Z,991.03
2018-03-20T05:50:00.839Z,991.03
2018-03-20T05:51:10.936Z,990.97
2018-03-20T05:52:21.054Z,991.06
2018-03-20T05:53:30.849Z,990.96
2018-03-20T05:54:40.960Z,991.09
2018-03-20T05:55:51.028Z,991.02
2018-03-20T05:57:00.841Z,991.03
2018-03-20T05:58:10.639Z,990.97
2018-03-20T05:59:20.448Z,990.93
2018-03-20T06:00:30.513Z,991.04
2018-03-20T06:01:39.788Z,991.11
2018-03-20T06:02:49.641Z,991.12
2018-03-20T06:03:59.697Z,991.13
2018-03-20T06:05:09.767Z,991.12
2018-03-20T06:06:19.572Z,991.09
2018-03-20T06:07:29.639Z,991.14
2018-03-20T06:08:39.711Z,991.17
2018-03-20T06:09:49.776Z,991.21
2018-03-20T06:10:59.832Z,991.11
2018-03-20T06:12:09.619Z,991.14
2018-03-20T06:13:19.415Z,991.16
2018-03-20T06:14:29.466Z,991.21
2018-03-20T06:15:39.523Z,991.18
2018-03-20T06:16:49.576Z,991.19
2018-03-20T06:17:59.414Z,991.14
2018-03-20T06:19:09.208Z,991.17
2018-03-20T06:20:19.016Z,991.22
2018-03-20T06:21:28.823Z,991.28
2018-03-20T06:22:38.612Z,991.3
2018-03-20T06:23:48.431Z,991.27
2018-03-20T06:24:58.483Z,991.28
2018-03-20T06:26:08.310Z,991.37
2018-03-20T06:27:18.381Z,991.31
2018-03-20T06:28:28.439Z,991.24
2018-03-20T06:29:38.494Z,991.3
2018-03-20T06:30:48.554Z,991.28
2018-03-20T06:31:58.627Z,991.32
2018-03-20T06:33:08.684Z,991.37
2018-03-20T06:34:18.749Z,991.36
2018-03-20T06:35:28.571Z,991.4
2018-03-20T06:36:38.623Z,991.39
2018-03-20T06:37:48.400Z,991.4
2018-03-20T06:38:58.516Z,991.44
2018-03-20T06:40:08.584Z,991.46
2018-03-20T06:41:18.391Z,991.45
2018-03-20T06:42:28.473Z,991.42
2018-03-20T06:43:38.261Z,991.44
2018-03-20T06:44:48.309Z,991.52
2018-03-20T06:45:58.369Z,991.5
2018-03-20T06:47:08.169Z,991.5
2018-03-20T06:48:17.962Z,991.56
2018-03-20T06:49:28.007Z,991.66
2018-03-20T06:50:38.080Z,991.65
2018-03-20T06:51:47.614Z,991.66
2018-03-20T06:52:57.418Z,991.63
2018-03-20T06:54:07.504Z,991.64
2018-03-20T06:55:17.310Z,991.62
2018-03-20T06:56:27.379Z,991.67
2018-03-20T06:57:37.441Z,991.65
2018-03-20T06:58:47.523Z,991.7
2018-03-20T06:59:57.588Z,991.73
2018-03-20T07:01:07.147Z,991.73
2018-03-20T07:02:16.958Z,991.77
2018-03-20T07:03:26.741Z,991.8
2018-03-20T07:04:36.285Z,991.72
2018-03-20T07:05:46.356Z,991.78
2018-03-20T07:06:56.436Z,991.76
2018-03-20T07:08:06.244Z,991.8
2018-03-20T07:09:16.311Z,991.79
2018-03-20T07:10:26.418Z,991.82
2018-03-20T07:11:36.516Z,991.89
2018-03-20T07:12:46.030Z,991.9
2018-03-20T07:13:56.088Z,991.92
2018-03-20T07:15:05.892Z,991.95
2018-03-20T07:16:14.900Z,991.94
2018-03-20T07:17:24.962Z,991.97
2018-03-20T07:18:34.770Z,992.02
2018-03-20T07:19:44.820Z,992.05
2018-03-20T07:20:54.875Z,992.01
2018-03-20T07:22:04.744Z,992.08
2018-03-20T07:23:14.549Z,992.08
2018-03-20T07:24:24.631Z,992
2018-03-20T07:25:34.426Z,992.06
2018-03-20T07:26:44.500Z,992.02
2018-03-20T07:27:54.620Z,992.05
2018-03-20T07:29:04.697Z,992.11
2018-03-20T07:30:14.496Z,992.1
2018-03-20T07:31:24.038Z,992.11
2018-03-20T07:32:34.097Z,992.11
2018-03-20T07:33:43.675Z,992.11
2018-03-20T07:34:53.494Z,992.12
2018-03-20T07:36:03.030Z,992.13
2018-03-20T07:37:13.103Z,992.21
2018-03-20T07:38:22.635Z,992.21
2018-03-20T07:39:32.436Z,992.27
2018-03-20T07:40:42.237Z,992.17
2018-03-20T07:41:52.053Z,992.15
2018-03-20T07:43:01.571Z,992.22
2018-03-20T07:44:11.652Z,992.25
2018-03-20T07:45:21.507Z,992.23
2018-03-20T07:46:31.571Z,992.25
2018-03-20T07:47:41.626Z,992.19
2018-03-20T07:48:51.675Z,992.34
2018-03-20T07:50:01.471Z,992.31
2018-03-20T07:51:11.264Z,992.31
2018-03-20T07:52:21.061Z,992.34
2018-03-20T07:53:31.191Z,992.35
2018-03-20T07:54:41.258Z,992.4
2018-03-20T07:55:50.785Z,992.4
2018-03-20T07:57:00.624Z,992.38
2018-03-20T07:58:09.350Z,992.44
2018-03-20T07:59:19.413Z,992.39
2018-03-20T08:00:29.213Z,992.42
2018-03-20T08:01:39.054Z,992.44
2018-03-20T08:02:49.003Z,992.42
2018-03-20T08:03:58.812Z,992.46
2018-03-20T08:05:08.884Z,992.54
2018-03-20T08:06:18.692Z,992.51
2018-03-20T08:07:28.511Z,992.52
2018-03-20T08:08:38.040Z,992.51
2018-03-20T08:09:47.835Z,992.54
2018-03-20T08:10:57.397Z,992.56
2018-03-20T08:12:07.204Z,992.57
2018-03-20T08:13:17.016Z,992.58
2018-03-20T08:14:27.140Z,992.57
2018-03-20T08:15:36.940Z,992.57
2018-03-20T08:16:46.961Z,992.54
2018-03-20T08:17:57.055Z,992.6
2018-03-20T08:19:06.900Z,992.6
2018-03-20T08:20:16.966Z,992.59
2018-03-20T08:21:26.764Z,992.62
2018-03-20T08:22:36.307Z,992.53
2018-03-20T08:23:45.836Z,992.6
2018-03-20T08:24:55.901Z,992.61
2018-03-20T08:26:05.436Z,992.59
2018-03-20T08:27:15.504Z,992.58
2018-03-20T08:28:25.313Z,992.64
2018-03-20T08:29:35.377Z,992.62
2018-03-20T08:30:45.197Z,992.58
2018-03-20T08:31:55.322Z,992.65
2018-03-20T08:33:04.889Z,992.68
2018-03-20T08:34:14.950Z,992.67
2018-03-20T08:35:24.741Z,992.73
2018-03-20T08:36:35.033Z,992.66
2018-03-20T08:37:45.399Z,992.73
2018-03-20T08:38:55.471Z,992.74
2018-03-20T08:40:05.566Z,992.74
2018-03-20T08:41:15.615Z,992.69
2018-03-20T08:42:25.700Z,992.72
2018-03-20T08:43:35.850Z,992.76
2018-03-20T08:44:45.678Z,992.72
2018-03-20T08:45:55.764Z,992.76
2018-03-20T08:47:05.310Z,992.76
2018-03-20T08:48:14.855Z,992.8
2018-03-20T08:49:24.424Z,992.78
2018-03-20T08:50:34.503Z,992.77
2018-03-20T08:51:44.557Z,992.79
2018-03-20T08:52:54.647Z,992.81
2018-03-20T08:54:04.439Z,992.8
2018-03-20T08:55:14.240Z,992.79
2018-03-20T08:56:23.793Z,992.78
2018-03-20T08:57:33.109Z,992.79
2018-03-20T08:58:43.534Z,992.87
2018-03-20T08:59:53.604Z,992.84
2018-03-20T09:01:03.128Z,992.9
2018-03-20T09:02:13.401Z,992.93
2018-03-20T09:03:22.956Z,992.87
2018-03-20T09:04:32.505Z,992.9
2018-03-20T09:05:41.802Z,992.87
2018-03-20T09:06:51.709Z,992.83
2018-03-20T09:08:01.256Z,992.88
2018-03-20T09:09:11.080Z,992.83
2018-03-20T09:10:20.868Z,992.87
2018-03-20T09:11:30.946Z,992.85
2018-03-20T09:12:41.016Z,992.85
2018-03-20T09:13:50.807Z,992.88
2018-03-20T09:15:00.665Z,992.82
2018-03-20T09:16:10.763Z,992.99
2018-03-20T09:17:20.861Z,992.91
2018-03-20T09:18:30.727Z,992.88
2018-03-20T09:19:40.537Z,992.92
2018-03-20T09:20:50.614Z,992.86
2018-03-20T09:22:00.139Z,992.94
2018-03-20T09:23:10.405Z,992.94
2018-03-20T09:24:20.525Z,992.93
2018-03-20T09:25:30.785Z,992.92
2018-03-20T09:26:40.843Z,992.99
2018-03-20T09:27:50.933Z,992.93
2018-03-20T09:29:00.745Z,992.97
2018-03-20T09:30:10.862Z,993.01
2018-03-20T09:31:20.687Z,992.98
2018-03-20T09:32:30.500Z,993.07
2018-03-20T09:33:40.602Z,993.03
2018-03-20T09:34:50.404Z,993.02
2018-03-20T09:36:00.522Z,992.96
2018-03-20T09:37:10.317Z,992.96
2018-03-20T09:38:20.119Z,992.95
2018-03-20T09:39:29.909Z,992.93
2018-03-20T09:40:39.712Z,992.9
2018-03-20T09:41:49.249Z,993.07
2018-03-20T09:42:59.078Z,993
2018-03-20T09:44:08.872Z,993.09
2018-03-20T09:45:18.404Z,993.1
2018-03-20T09:46:28.464Z,993.1
2018-03-20T09:47:38.312Z,993.16
2018-03-20T09:48:48.216Z,993.2
2018-03-20T09:49:58.018Z,993.13
2018-03-20T09:51:08.085Z,993.12
2018-03-20T09:52:18.150Z,993.1
2018-03-20T09:53:28.263Z,993.2
2018-03-20T09:54:38.332Z,993.14
2018-03-20T09:55:48.121Z,993.07
2018-03-20T09:56:57.676Z,993.1
2018-03-20T09:58:06.948Z,993.16
2018-03-20T09:59:16.796Z,993.12
2018-03-20T10:00:26.329Z,993.1
2018-03-20T10:01:36.133Z,993.15
2018-03-20T10:02:45.683Z,993.13
2018-03-20T10:03:55.761Z,993.15
2018-03-20T10:05:05.816Z,993.21
2018-03-20T10:06:15.338Z,993.22
2018-03-20T10:07:25.418Z,993.28
2018-03-20T10:08:34.956Z,993.21
2018-03-20T10:09:45.009Z,993.24
2018-03-20T10:10:54.863Z,993.3
2018-03-20T10:12:04.930Z,993.35
2018-03-20T10:13:15.001Z,993.3
2018-03-20T10:14:25.051Z,993.33
2018-03-20T10:15:34.355Z,993.36
2018-03-20T10:16:44.254Z,993.33
2018-03-20T10:17:54.060Z,993.32
2018-03-20T10:19:04.120Z,993.36
2018-03-20T10:20:14.324Z,993.37
2018-03-20T10:21:24.263Z,993.29
2018-03-20T10:22:34.102Z,993.25
2018-03-20T10:23:43.624Z,993.24
2018-03-20T10:24:53.165Z,993.31
2018-03-20T10:26:03.042Z,993.32
2018-03-20T10:27:12.614Z,993.23
2018-03-20T10:28:22.201Z,993.31
2018-03-20T10:29:31.791Z,993.35
2018-03-20T10:30:41.654Z,993.42
2018-03-20T10:31:51.181Z,993.35
2018-03-20T10:33:01.258Z,993.4
2018-03-20T10:34:10.794Z,993.37
2018-03-20T10:35:20.610Z,993.41
2018-03-20T10:36:30.593Z,993.35
2018-03-20T10:37:40.399Z,993.36
2018-03-20T10:38:50.222Z,993.36
2018-03-20T10:40:00.338Z,993.4
2018-03-20T10:41:10.394Z,993.31
2018-03-20T10:42:19.663Z,993.39
2018-03-20T10:43:29.714Z,993.39
2018-03-20T10:44:39.521Z,993.35
2018-03-20T10:45:48.786Z,993.46
2018-03-20T10:46:58.578Z,993.39
2018-03-20T10:48:08.219Z,993.43
2018-03-20T10:49:18.032Z,993.46
2018-03-20T10:50:28.093Z,993.43
2018-03-20T10:51:37.907Z,993.49
2018-03-20T10:52:47.702Z,993.43
2018-03-20T10:53:57.764Z,993.46
2018-03-20T10:55:07.879Z,993.43
2018-03-20T10:56:17.662Z,993.44
2018-03-20T10:57:27.448Z,993.39
2018-03-20T10:58:36.976Z,993.45
2018-03-20T10:59:46.780Z,993.39
2018-03-20T11:00:56.055Z,993.39
2018-03-20T11:02:05.851Z,993.45
2018-03-20T11:03:15.662Z,993.54
2018-03-20T11:04:25.740Z,993.45
2018-03-20T11:05:35.810Z,993.49
2018-03-20T11:06:45.609Z,993.53
2018-03-20T11:07:55.690Z,993.52
2018-03-20T11:09:05.483Z,993.56
2018-03-20T11:10:15.270Z,993.52
2018-03-20T11:11:25.381Z,993.49
2018-03-20T11:12:34.657Z,993.58
2018-03-20T11:13:44.756Z,993.47
2018-03-20T11:14:54.612Z,993.51
2018-03-20T11:16:04.693Z,993.51
2018-03-20T11:17:14.474Z,993.52
2018-03-20T11:18:24.551Z,993.54
2018-03-20T11:19:34.106Z,993.65
2018-03-20T11:20:43.930Z,993.48
2018-03-20T11:21:53.732Z,993.47
2018-03-20T11:23:03.539Z,993.6
2018-03-20T11:24:13.345Z,993.58
2018-03-20T11:25:23.147Z,993.58
2018-03-20T11:26:33.000Z,993.65
2018-03-20T11:27:42.531Z,993.63
2018-03-20T11:28:52.607Z,993.57
2018-03-20T11:30:02.145Z,993.59
2018-03-20T11:31:12.210Z,993.69
2018-03-20T11:32:22.050Z,993.61
2018-03-20T11:33:31.597Z,993.6
2018-03-20T11:34:41.700Z,993.53
2018-03-20T11:35:51.763Z,993.63
2018-03-20T11:37:01.558Z,993.64
2018-03-20T11:38:11.414Z,993.58
2018-03-20T11:39:21.489Z,993.5
2018-03-20T11:40:31.548Z,993.68
2018-03-20T11:41:41.618Z,993.65
2018-03-20T11:42:51.672Z,993.64
2018-03-20T11:44:01.780Z,993.66
2018-03-20T11:45:11.846Z,993.71
2018-03-20T11:46:21.925Z,993.68
2018-03-20T11:47:31.978Z,993.64
2018-03-20T11:48:42.034Z,993.69
2018-03-20T11:49:52.168Z,993.68
2018-03-20T11:51:02.254Z,993.73
2018-03-20T11:52:12.338Z,993.63
2018-03-20T11:53:22.126Z,993.76
2018-03-20T11:54:32.209Z,993.7
2018-03-20T11:55:42.053Z,993.73
2018-03-20T11:56:51.865Z,993.68
2018-03-20T11:58:01.650Z,993.76
2018-03-20T11:59:11.740Z,993.73
2018-03-20T12:00:21.812Z,993.81
2018-03-20T12:01:31.886Z,993.8
2018-03-20T12:02:41.676Z,993.78
2018-03-20T12:03:51.476Z,993.71
2018-03-20T12:05:01.547Z,993.75
2018-03-20T12:06:11.342Z,993.84
2018-03-20T12:07:21.465Z,993.79
2018-03-20T12:08:31.538Z,993.8
2018-03-20T12:09:41.593Z,993.82
2018-03-20T12:10:51.396Z,993.8
2018-03-20T12:12:00.941Z,993.79
2018-03-20T12:13:11.059Z,993.87
2018-03-20T12:14:21.153Z,993.83
2018-03-20T12:15:31.238Z,993.83
2018-03-20T12:16:41.320Z,993.84
2018-03-20T12:17:51.410Z,993.83
2018-03-20T12:19:01.215Z,993.82
2018-03-20T12:20:11.281Z,993.91
2018-03-20T12:21:21.356Z,993.79
2018-03-20T12:22:31.148Z,993.86
2018-03-20T12:23:41.217Z,993.88
2018-03-20T12:24:51.327Z,993.89
2018-03-20T12:26:01.402Z,993.95
2018-03-20T12:27:11.493Z,993.91
2018-03-20T12:28:21.299Z,993.93
2018-03-20T12:29:31.112Z,993.97
2018-03-20T12:30:40.912Z,993.95
2018-03-20T12:31:50.744Z,994.01
2018-03-20T12:33:00.662Z,993.96
2018-03-20T12:34:10.471Z,993.98
2018-03-20T12:35:20.023Z,994
2018-03-20T12:36:30.092Z,994.09
2018-03-20T12:37:40.160Z,994.02
2018-03-20T12:38:50.048Z,994.18
2018-03-20T12:39:59.569Z,994.05
2018-03-20T12:41:09.363Z,994.07
2018-03-20T12:42:19.211Z,994.09
2018-03-20T12:43:28.996Z,994.13
2018-03-20T12:44:38.812Z,994.15
2018-03-20T12:45:47.822Z,994.18
2018-03-20T12:46:57.615Z,994.19
2018-03-20T12:48:07.216Z,994.31
2018-03-20T12:49:17.002Z,994.23
2018-03-20T12:50:26.809Z,994.28
2018-03-20T12:51:36.881Z,994.27
2018-03-20T12:52:46.702Z,994.27
2018-03-20T12:53:56.811Z,994.27
2018-03-20T12:55:06.409Z,994.28
2018-03-20T12:56:16.213Z,994.22
2018-03-20T12:57:26.034Z,994.32
2018-03-20T12:58:35.311Z,994.3
2018-03-20T12:59:44.899Z,994.35
2018-03-20T13:00:55.006Z,994.35
2018-03-20T13:02:04.537Z,994.37
2018-03-20T13:03:14.332Z,994.31
2018-03-20T13:04:24.421Z,994.36
2018-03-20T13:05:34.038Z,994.35
2018-03-20T13:06:43.618Z,994.39
2018-03-20T13:07:53.690Z,994.39
2018-03-20T13:09:03.672Z,994.43
2018-03-20T13:10:13.488Z,994.51
2018-03-20T13:11:23.344Z,994.48
2018-03-20T13:12:33.168Z,994.49
2018-03-20T13:13:43.234Z,994.54
2018-03-20T13:14:53.522Z,994.56
2018-03-20T13:16:03.599Z,994.45
2018-03-20T13:17:13.710Z,994.45
2018-03-20T13:18:23.783Z,994.54
2018-03-20T13:19:33.868Z,994.46
2018-03-20T13:20:43.413Z,994.5
2018-03-20T13:21:53.480Z,994.56
2018-03-20T13:23:03.328Z,994.5
2018-03-20T13:24:13.605Z,994.54
2018-03-20T13:25:23.671Z,994.57
2018-03-20T13:26:33.737Z,994.54
2018-03-20T13:27:43.800Z,994.49
2018-03-20T13:28:53.925Z,994.54
2018-03-20T13:30:03.988Z,994.58
2018-03-20T13:31:13.783Z,994.49
2018-03-20T13:32:23.587Z,994.54
2018-03-20T13:33:33.119Z,994.52
2018-03-20T13:34:42.711Z,994.52
2018-03-20T13:35:52.775Z,994.55
2018-03-20T13:37:02.838Z,994.5
2018-03-20T13:38:12.897Z,994.41
2018-03-20T13:39:22.959Z,994.44
2018-03-20T13:40:33.040Z,994.53
2018-03-20T13:41:43.119Z,994.44
2018-03-20T13:42:53.179Z,994.45
2018-03-20T13:44:03.256Z,994.56
2018-03-20T13:45:13.334Z,994.42
2018-03-20T13:46:23.436Z,994.3
2018-03-20T13:47:33.230Z,994.4
2018-03-20T13:48:43.299Z,994.38
2018-03-20T13:49:53.350Z,994.42
2018-03-20T13:51:03.399Z,994.49
2018-03-20T13:52:13.538Z,994.54
2018-03-20T13:53:23.617Z,994.46
2018-03-20T13:54:33.413Z,994.49
2018-03-20T13:55:43.213Z,994.6
2018-03-20T13:56:53.281Z,994.47
2018-03-20T13:58:03.340Z,994.48
2018-03-20T13:59:13.405Z,994.49
2018-03-20T14:00:23.454Z,994.57
2018-03-20T14:01:33.263Z,994.59
2018-03-20T14:02:43.345Z,994.57
2018-03-20T14:03:53.141Z,994.61
2018-03-20T14:05:03.212Z,994.58
2018-03-20T14:06:12.787Z,994.64
2018-03-20T14:07:22.860Z,994.5
2018-03-20T14:08:32.652Z,994.64
2018-03-20T14:09:42.778Z,994.73
2018-03-20T14:10:52.846Z,994.72
2018-03-20T14:12:02.665Z,994.61
2018-03-20T14:13:12.473Z,994.74
2018-03-20T14:14:22.554Z,994.72
2018-03-20T14:15:32.183Z,994.74
2018-03-20T14:16:41.993Z,994.78
2018-03-20T14:17:51.286Z,994.72
2018-03-20T14:19:01.077Z,994.79
2018-03-20T14:20:11.142Z,994.74
2018-03-20T14:21:20.456Z,994.64
2018-03-20T14:22:30.014Z,994.83
2018-03-20T14:23:40.124Z,994.8
2018-03-20T14:24:49.976Z,994.81
2018-03-20T14:25:59.797Z,994.91
2018-03-20T14:27:09.735Z,994.95
2018-03-20T14:28:19.272Z,995.01
2018-03-20T14:29:29.095Z,994.92
2018-03-20T14:30:38.915Z,994.95
2018-03-20T14:31:49.022Z,994.86
2018-03-20T14:32:58.881Z,994.98
2018-03-20T14:34:08.689Z,994.95
2018-03-20T14:35:18.762Z,994.95
2018-03-20T14:36:28.637Z,995
2018-03-20T14:37:38.238Z,995.03
2018-03-20T14:38:48.302Z,994.96
2018-03-20T14:39:58.377Z,995.03
2018-03-20T14:41:07.924Z,995.06
2018-03-20T14:42:18.026Z,995.08
2018-03-20T14:43:27.080Z,995.07
2018-03-20T14:44:36.891Z,995.07
2018-03-20T14:45:47.027Z,995.01
2018-03-20T14:46:56.573Z,995.06
2018-03-20T14:48:06.120Z,995.1
2018-03-20T14:49:15.707Z,995.02
2018-03-20T14:50:25.230Z,995.29
2018-03-20T14:51:34.774Z,995.11
2018-03-20T14:52:44.839Z,995.14
2018-03-20T14:53:54.098Z,995.18
2018-03-20T14:55:03.916Z,995.12
2018-03-20T14:56:13.457Z,995.25
2018-03-20T14:57:23.313Z,995.15
2018-03-20T14:58:33.113Z,995.22
2018-03-20T14:59:43.207Z,995.21
2018-03-20T15:00:53.261Z,995.23
2018-03-20T15:02:03.344Z,995.25
2018-03-20T15:03:13.438Z,995.22
2018-03-20T15:04:23.282Z,995.23
2018-03-20T15:05:33.348Z,995.27